»·PEaware :: N3433Q KCRQ-KBUR

N3433Q :: KCRQ-KBUR

FLIGHT INFORMATION

Flight Status: Arrived
Operator: Privately registered:
United States
More flights under this callsign
Pilot: Jeremy H. (10741)
Aircraft: Diamond DA-62
(DA62)
More flights by this aircraft type
Origin: KCRQ McClellan-Palomar
United States
Destination: KBUR Bob Hope-Burbank
United States
More flights between these airports :: More routes between these airports
Route: OCN V23 POPPR SMO125 SMO SMO311 SILEX
File this flight plan on PilotEdge
Remarks:
Altitude:
(Current/Filed)
6,000ft
Speed:
(Current/Filed)
171kts
Departed: 29-Nov-23 11:45 AM
Arrived: 29-Nov-23 12:34 PM
Distance/Time
Traveled:
84nm/0:49
Distance/Time
To Go:
Arrived

Flight Plot

Page will automatically refresh every two minutes.


Map Options




Map Legend


Flown Route
Filed Route
Departure Airport
Arrival Airport
Navaid (VOR, NDB)
Fix

Horizontal Profiles

Position Reports

Time Latitude Longitude Heading Altitude Ground
Speed
29-Nov-23 11:24 33.127564 -117.275995 92 331ft 0kts
29-Nov-23 11:26 33.127564 -117.275995 92 331ft 0kts
29-Nov-23 11:27 33.127564 -117.275995 92 331ft 0kts
29-Nov-23 11:28 33.127564 -117.275995 92 331ft 0kts
29-Nov-23 11:29 33.127564 -117.275995 92 331ft 0kts
29-Nov-23 11:30 33.127564 -117.275995 92 331ft 0kts
29-Nov-23 11:31 33.127564 -117.275995 92 331ft 0kts
29-Nov-23 11:32 33.127564 -117.275995 92 331ft 0kts
29-Nov-23 11:33 33.127564 -117.275995 92 331ft 0kts
29-Nov-23 11:34 33.127564 -117.275995 92 331ft 0kts
29-Nov-23 11:35 33.127564 -117.275995 92 331ft 0kts
29-Nov-23 11:36 33.127564 -117.275995 92 331ft 0kts
29-Nov-23 11:37 33.127564 -117.275995 92 331ft 0kts
29-Nov-23 11:38 33.127564 -117.275995 92 331ft 0kts
29-Nov-23 11:39 33.127564 -117.275995 92 331ft 0kts
29-Nov-23 11:40 33.127564 -117.275995 92 331ft 0kts
29-Nov-23 11:41 33.127564 -117.275995 92 331ft 0kts
29-Nov-23 11:42 33.128487 -117.273557 80 330ft 16kts
29-Nov-23 11:43 33.128651 -117.272945 54 329ft 0kts
29-Nov-23 11:44 33.129230 -117.272586 346 330ft 11kts
29-Nov-23 11:45 33.127338 -117.285529 257 630ft 97kts
29-Nov-23 11:46 33.120564 -117.320313 256 1950ft 114kts
29-Nov-23 11:47 33.112085 -117.359456 256 2998ft 143kts
29-Nov-23 11:48 33.101520 -117.408319 256 2994ft 152kts
29-Nov-23 11:48 33.099019 -117.448080 308 2994ft 148kts
29-Nov-23 11:50 33.139219 -117.440178 7 4217ft 127kts
29-Nov-23 11:51 33.174169 -117.432334 5 5242ft 128kts
29-Nov-23 11:52 33.209536 -117.424559 4 6266ft 130kts
29-Nov-23 11:52 33.239193 -117.420371 338 7174ft 124kts
29-Nov-23 11:53 33.265232 -117.446369 312 8005ft 140kts
29-Nov-23 11:54 33.295943 -117.482079 312 8008ft 160kts
29-Nov-23 11:56 33.333711 -117.526106 312 8003ft 164kts
29-Nov-23 11:57 33.366564 -117.564445 312 8023ft 165kts
29-Nov-23 11:57 33.394118 -117.596633 312 8034ft 166kts
29-Nov-23 11:58 33.427318 -117.635455 312 8042ft 166kts
29-Nov-23 11:59 33.460399 -117.674188 312 8042ft 167kts
29-Nov-23 12:01 33.499105 -117.719585 312 7796ft 167kts
29-Nov-23 12:01 33.526816 -117.752145 312 7036ft 167kts
29-Nov-23 12:02 33.559002 -117.789984 312 6134ft 159kts
29-Nov-23 12:03 33.587781 -117.823843 311 5977ft 140kts
29-Nov-23 12:04 33.618295 -117.859788 312 5975ft 160kts
29-Nov-23 12:05 33.650278 -117.897482 312 5976ft 161kts
29-Nov-23 12:06 33.679830 -117.937736 296 5768ft 161kts
29-Nov-23 12:07 33.701107 -117.983328 297 5052ft 153kts
29-Nov-23 12:08 33.721753 -118.027636 297 4299ft 151kts
29-Nov-23 12:09 33.742664 -118.072588 297 3934ft 161kts
29-Nov-23 12:10 33.764663 -118.119928 298 4006ft 164kts
29-Nov-23 12:11 33.786939 -118.167928 297 4003ft 163kts
29-Nov-23 12:12 33.809112 -118.215768 298 4007ft 163kts
29-Nov-23 12:13 33.831123 -118.263325 297 3995ft 161kts
29-Nov-23 12:14 33.859116 -118.304737 317 3993ft 164kts
29-Nov-23 12:15 33.894195 -118.339980 318 4000ft 165kts
29-Nov-23 12:16 33.929559 -118.375500 318 4001ft 165kts
29-Nov-23 12:17 33.962699 -118.408824 317 4840ft 149kts
29-Nov-23 12:18 33.994209 -118.440548 317 5748ft 146kts
29-Nov-23 12:19 34.028476 -118.471466 323 5993ft 162kts
29-Nov-23 12:20 34.066577 -118.502349 323 5998ft 167kts
29-Nov-23 12:21 34.105580 -118.533994 323 5980ft 169kts
29-Nov-23 12:22 34.142436 -118.563900 323 5979ft 147kts
29-Nov-23 12:23 34.177872 -118.589332 324 5671ft 159kts
29-Nov-23 12:24 34.209529 -118.571366 93 4849ft 183kts
29-Nov-23 12:25 34.200766 -118.513825 89 4021ft 169kts
29-Nov-23 12:26 34.200890 -118.459342 91 3196ft 155kts
29-Nov-23 12:27 34.200809 -118.413682 93 2472ft 127kts
29-Nov-23 12:28 34.200551 -118.371774 91 1696ft 119kts
29-Nov-23 12:29 34.199771 -118.332339 104 1696ft 116kts
29-Nov-23 12:30 34.176620 -118.338665 272 1687ft 121kts
29-Nov-23 12:31 34.178125 -118.380058 271 1690ft 125kts
29-Nov-23 12:32 34.197864 -118.389700 81 1204ft 120kts
29-Nov-23 12:33 34.197797 -118.359073 88 694ft 25kts
29-Nov-23 12:34 34.198577 -118.357965 359 688ft 0kts
29-Nov-23 12:35 34.198871 -118.359141 270 694ft 13kts
29-Nov-23 12:36 34.199048 -118.364334 298 700ft 11kts
29-Nov-23 12:37 34.200130 -118.364543 4 699ft 0kts

Navigation Log

Ident Type
Flight plan parsing failed, navigation log unavailable